Time,TemperatureF,DewpointF,PressureIn,WindDirection,WindDirectionDegrees,WindSpeedMPH,WindSpeedGustMPH,Humidity,HourlyPrecipIn,Conditions,Clouds,dailyrainin,SoftwareType,DateUTC
2013-09-13 00:00:00,58.0,51.2,30.07,NNW,337,5.0,5.0,78,0.00,,,0.00,Wunderground v.1.15,2013-09-13 05:00:00,
2013-09-13 00:04:00,57.8,51.0,30.07,North,353,5.0,8.0,78,0.00,,,0.00,Wunderground v.1.15,2013-09-13 05:04:00,
2013-09-13 00:10:00,57.6,51.1,30.07,North,356,4.0,8.0,79,0.00,,,0.00,Wunderground v.1.15,2013-09-13 05:10:00,
2013-09-13 00:12:00,57.5,51.0,30.08,NNE,15,4.0,8.0,79,0.00,,,0.00,Wunderground v.1.15,2013-09-13 05:12:00,
2013-09-13 00:14:00,57.5,51.0,30.08,North,8,4.0,8.0,79,0.00,,,0.00,Wunderground v.1.15,2013-09-13 05:14:00,
2013-09-13 00:20:00,57.3,50.8,30.08,North,350,4.0,8.0,79,0.00,,,0.00,Wunderground v.1.15,2013-09-13 05:20:00,
2013-09-13 00:22:00,57.2,50.7,30.08,North,360,4.0,8.0,79,0.00,,,0.00,Wunderground v.1.15,2013-09-13 05:22:00,
2013-09-13 00:26:00,57.0,50.9,30.08,NNW,345,4.0,8.0,80,0.00,,,0.00,Wunderground v.1.15,2013-09-13 05:26:00,
2013-09-13 00:30:00,56.9,50.8,30.08,North,354,4.0,4.0,80,0.00,,,0.00,Wunderground v.1.15,2013-09-13 05:30:00,
2013-09-13 00:32:00,56.8,50.7,30.08,North,6,4.0,5.0,80,0.00,,,0.00,Wunderground v.1.15,2013-09-13 05:32:00,
2013-09-13 00:34:00,56.8,50.7,30.08,NNW,344,4.0,8.0,80,0.00,,,0.00,Wunderground v.1.15,2013-09-13 05:34:00,
2013-09-13 00:40:00,56.7,50.6,30.08,NNW,346,4.0,8.0,80,0.00,,,0.00,Wunderground v.1.15,2013-09-13 05:40:00,
2013-09-13 00:42:00,56.6,50.5,30.08,NNW,330,4.0,8.0,80,0.00,,,0.00,Wunderground v.1.15,2013-09-13 05:42:00,
2013-09-13 00:48:00,56.4,50.6,30.08,NNW,348,4.0,8.0,81,0.00,,,0.00,Wunderground v.1.15,2013-09-13 05:48:00,
2013-09-13 00:50:00,56.3,50.5,30.08,North,358,4.0,8.0,81,0.00,,,0.00,Wunderground v.1.15,2013-09-13 05:50:00,
2013-09-13 00:52:00,56.3,50.5,30.08,North,1,4.0,8.0,81,0.00,,,0.00,Wunderground v.1.15,2013-09-13 05:52:00,
2013-09-13 00:54:00,56.3,50.5,30.08,North,4,4.0,8.0,81,0.00,,,0.00,Wunderground v.1.15,2013-09-13 05:54:00,
2013-09-13 00:56:00,56.3,50.5,30.08,NNW,344,4.0,8.0,81,0.00,,,0.00,Wunderground v.1.15,2013-09-13 05:56:00,
2013-09-13 00:58:00,56.3,50.5,30.08,North,354,3.0,8.0,81,0.00,,,0.00,Wunderground v.1.15,2013-09-13 05:58:00,
2013-09-13 01:00:00,56.2,50.4,30.08,North,357,3.0,8.0,81,0.00,,,0.00,Wunderground v.1.15,2013-09-13 06:00:00,
2013-09-13 01:06:00,56.2,50.4,30.09,North,350,3.0,8.0,81,0.00,,,0.00,Wunderground v.1.15,2013-09-13 06:06:00,
2013-09-13 01:08:00,56.1,50.3,30.09,North,353,3.0,8.0,81,0.00,,,0.00,Wunderground v.1.15,2013-09-13 06:08:00,
2013-09-13 01:10:00,56.1,50.3,30.09,North,355,4.0,4.0,81,0.00,,,0.00,Wunderground v.1.15,2013-09-13 06:10:00,
2013-09-13 01:14:00,55.9,50.5,30.09,North,358,4.0,8.0,82,0.00,,,0.00,Wunderground v.1.15,2013-09-13 06:14:00,
2013-09-13 01:16:00,55.9,50.5,30.09,NNW,335,4.0,8.0,82,0.00,,,0.00,Wunderground v.1.15,2013-09-13 06:16:00,
2013-09-13 01:20:00,55.9,50.5,30.09,North,4,4.0,8.0,82,0.00,,,0.00,Wunderground v.1.15,2013-09-13 06:20:00,
2013-09-13 01:24:00,55.9,50.5,30.09,NNE,26,5.0,8.0,82,0.00,,,0.00,Wunderground v.1.15,2013-09-13 06:24:00,
2013-09-13 01:26:00,56.1,50.7,30.09,North,5,5.0,8.0,82,0.00,,,0.00,Wunderground v.1.15,2013-09-13 06:26:00,
2013-09-13 01:28:00,56.3,50.9,30.09,North,355,6.0,8.0,82,0.00,,,0.00,Wunderground v.1.15,2013-09-13 06:28:00,
2013-09-13 01:32:00,56.5,50.7,30.09,North,4,6.0,8.0,81,0.00,,,0.00,Wunderground v.1.15,2013-09-13 06:32:00,
2013-09-13 01:34:00,56.6,50.8,30.09,North,9,6.0,8.0,81,0.00,,,0.00,Wunderground v.1.15,2013-09-13 06:34:00,
2013-09-13 01:36:00,56.6,50.8,30.09,North,360,6.0,8.0,81,0.00,,,0.00,Wunderground v.1.15,2013-09-13 06:36:00,
2013-09-13 01:38:00,56.6,50.8,30.09,NNE,18,6.0,8.0,81,0.00,,,0.00,Wunderground v.1.15,2013-09-13 06:38:00,
2013-09-13 01:40:00,56.5,50.7,30.09,North,1,5.0,5.0,81,0.00,,,0.00,Wunderground v.1.15,2013-09-13 06:40:00,
2013-09-13 01:42:00,56.5,50.7,30.09,North,11,5.0,6.0,81,0.00,,,0.00,Wunderground v.1.15,2013-09-13 06:42:00,
2013-09-13 01:46:00,56.3,50.5,30.09,NNE,15,4.0,8.0,81,0.00,,,0.00,Wunderground v.1.15,2013-09-13 06:46:00,
2013-09-13 01:48:00,56.1,50.7,30.09,North,357,4.0,8.0,82,0.00,,,0.00,Wunderground v.1.15,2013-09-13 06:48:00,
2013-09-13 01:52:00,56.0,50.6,30.09,North,5,4.0,8.0,82,0.00,,,0.00,Wunderground v.1.15,2013-09-13 06:52:00,
2013-09-13 01:54:00,56.0,50.6,30.09,NNW,347,4.0,8.0,82,0.00,,,0.00,Wunderground v.1.15,2013-09-13 06:54:00,
2013-09-13 01:56:00,56.0,50.9,30.09,North,358,5.0,8.0,83,0.00,,,0.00,Wunderground v.1.15,2013-09-13 06:56:00,
2013-09-13 01:58:00,55.9,50.5,30.09,North,11,5.0,8.0,82,0.00,,,0.00,Wunderground v.1.15,2013-09-13 06:58:00,
2013-09-13 02:00:00,55.8,50.7,30.09,North,8,5.0,5.0,83,0.00,,,0.00,Wunderground v.1.15,2013-09-13 07:00:00,
2013-09-13 02:04:00,55.6,50.5,30.09,North,9,4.0,8.0,83,0.00,,,0.00,Wunderground v.1.15,2013-09-13 07:04:00,
2013-09-13 02:06:00,55.5,50.4,30.09,North,1,4.0,8.0,83,0.00,,,0.00,Wunderground v.1.15,2013-09-13 07:06:00,
2013-09-13 02:08:00,55.5,50.7,30.09,North,360,4.0,8.0,84,0.00,,,0.00,Wunderground v.1.15,2013-09-13 07:08:00,
2013-09-13 02:14:00,55.4,50.6,30.09,North,8,4.0,8.0,84,0.00,,,0.00,Wunderground v.1.15,2013-09-13 07:14:00,
2013-09-13 02:16:00,55.3,50.5,30.09,North,6,4.0,8.0,84,0.00,,,0.00,Wunderground v.1.15,2013-09-13 07:16:00,
2013-09-13 02:18:00,55.3,50.5,30.10,North,8,4.0,8.0,84,0.00,,,0.00,Wunderground v.1.15,2013-09-13 07:18:00,
2013-09-13 02:20:00,55.2,50.8,30.10,NNE,12,3.0,8.0,85,0.00,,,0.00,Wunderground v.1.15,2013-09-13 07:20:00,
2013-09-13 02:22:00,55.3,50.9,30.10,NNE,18,4.0,8.0,85,0.00,,,0.00,Wunderground v.1.15,2013-09-13 07:22:00,
2013-09-13 02:24:00,55.4,51.0,30.10,North,5,4.0,8.0,85,0.00,,,0.00,Wunderground v.1.15,2013-09-13 07:24:00,
2013-09-13 02:28:00,55.7,51.3,30.10,North,5,4.0,8.0,85,0.00,,,0.00,Wunderground v.1.15,2013-09-13 07:28:00,
2013-09-13 02:30:00,55.8,51.4,30.10,NNE,12,4.0,8.0,85,0.00,,,0.00,Wunderground v.1.15,2013-09-13 07:30:00,
2013-09-13 02:34:00,56.0,51.6,30.10,NNE,19,5.0,8.0,85,0.00,,,0.00,Wunderground v.1.15,2013-09-13 07:34:00,
2013-09-13 02:40:00,56.3,51.8,30.10,NNE,25,5.0,8.0,85,0.00,,,0.00,Wunderground v.1.15,2013-09-13 07:40:00,
2013-09-13 02:42:00,56.3,51.8,30.10,NNE,13,5.0,8.0,85,0.00,,,0.00,Wunderground v.1.15,2013-09-13 07:42:00,
2013-09-13 02:46:00,56.2,51.7,30.10,NNE,12,4.0,8.0,85,0.00,,,0.00,Wunderground v.1.15,2013-09-13 07:46:00,
2013-09-13 02:48:00,56.1,51.7,30.10,NNE,12,4.0,8.0,85,0.00,,,0.00,Wunderground v.1.15,2013-09-13 07:48:00,
2013-09-13 02:50:00,55.9,51.5,30.10,NNE,16,3.0,8.0,85,0.00,,,0.00,Wunderground v.1.15,2013-09-13 07:50:00,
2013-09-13 02:56:00,55.4,51.0,30.10,North,6,4.0,8.0,85,0.00,,,0.00,Wunderground v.1.15,2013-09-13 07:56:00,
2013-09-13 02:58:00,55.2,51.1,30.10,North,8,4.0,8.0,86,0.00,,,0.00,Wunderground v.1.15,2013-09-13 07:58:00,
2013-09-13 03:02:00,54.9,50.8,30.10,North,6,4.0,8.0,86,0.00,,,0.00,Wunderground v.1.15,2013-09-13 08:02:00,
2013-09-13 03:04:00,54.8,50.7,30.10,North,11,4.0,8.0,86,0.00,,,0.00,Wunderground v.1.15,2013-09-13 08:04:00,
2013-09-13 03:06:00,54.8,51.0,30.10,North,8,4.0,8.0,87,0.00,,,0.00,Wunderground v.1.15,2013-09-13 08:06:00,
2013-09-13 03:08:00,54.7,50.9,30.10,North,4,4.0,8.0,87,0.00,,,0.00,Wunderground v.1.15,2013-09-13 08:08:00,
2013-09-13 03:10:00,54.6,50.8,30.10,North,9,4.0,4.0,87,0.00,,,0.00,Wunderground v.1.15,2013-09-13 08:10:00,
2013-09-13 03:12:00,54.6,50.8,30.10,NNE,19,4.0,5.0,87,0.00,,,0.00,Wunderground v.1.15,2013-09-13 08:12:00,
2013-09-13 03:14:00,54.5,50.7,30.10,NNE,15,4.0,8.0,87,0.00,,,0.00,Wunderground v.1.15,2013-09-13 08:14:00,
2013-09-13 03:18:00,54.3,50.5,30.10,North,11,4.0,8.0,87,0.00,,,0.00,Wunderground v.1.15,2013-09-13 08:18:00,
2013-09-13 03:20:00,54.2,50.4,30.10,NNE,29,4.0,8.0,87,0.00,,,0.00,Wunderground v.1.15,2013-09-13 08:20:00,
2013-09-13 03:24:00,54.1,50.3,30.10,North,5,4.0,8.0,87,0.00,,,0.00,Wunderground v.1.15,2013-09-13 08:24:00,
2013-09-13 03:26:00,54.1,50.6,30.10,North,4,4.0,8.0,88,0.00,,,0.00,Wunderground v.1.15,2013-09-13 08:26:00,
2013-09-13 03:28:00,54.0,50.5,30.10,NNE,15,4.0,8.0,88,0.00,,,0.00,Wunderground v.1.15,2013-09-13 08:28:00,
2013-09-13 03:30:00,53.9,50.4,30.10,NNE,12,4.0,8.0,88,0.00,,,0.00,Wunderground v.1.15,2013-09-13 08:30:00,
2013-09-13 03:32:00,53.9,50.4,30.10,North,8,3.0,8.0,88,0.00,,,0.00,Wunderground v.1.15,2013-09-13 08:32:00,
2013-09-13 03:34:00,53.9,50.4,30.10,NNE,26,3.0,8.0,88,0.00,,,0.00,Wunderground v.1.15,2013-09-13 08:34:00,
2013-09-13 03:36:00,53.8,50.3,30.10,NNE,28,3.0,8.0,88,0.00,,,0.00,Wunderground v.1.15,2013-09-13 08:36:00,
2013-09-13 03:38:00,53.7,50.2,30.11,NNE,20,3.0,8.0,88,0.00,,,0.00,Wunderground v.1.15,2013-09-13 08:38:00,
2013-09-13 03:40:00,53.6,50.1,30.11,NNE,22,2.0,8.0,88,0.00,,,0.00,Wunderground v.1.15,2013-09-13 08:40:00,
2013-09-13 03:42:00,53.4,49.9,30.11,NNE,19,2.0,8.0,88,0.00,,,0.00,Wunderground v.1.15,2013-09-13 08:42:00,
2013-09-13 03:44:00,53.2,49.7,30.11,NNE,28,2.0,8.0,88,0.00,,,0.00,Wunderground v.1.15,2013-09-13 08:44:00,
2013-09-13 03:46:00,53.0,49.5,30.11,NNE,23,2.0,8.0,88,0.00,,,0.00,Wunderground v.1.15,2013-09-13 08:46:00,
2013-09-13 03:48:00,52.9,49.7,30.11,NNE,20,2.0,8.0,89,0.00,,,0.00,Wunderground v.1.15,2013-09-13 08:48:00,
2013-09-13 03:50:00,52.8,49.6,30.11,NNE,25,2.0,8.0,89,0.00,,,0.00,Wunderground v.1.15,2013-09-13 08:50:00,
2013-09-13 03:52:00,52.6,49.4,30.11,NNE,23,2.0,8.0,89,0.00,,,0.00,Wunderground v.1.15,2013-09-13 08:52:00,
2013-09-13 03:54:00,52.5,49.4,30.11,NNE,20,2.0,8.0,89,0.00,,,0.00,Wunderground v.1.15,2013-09-13 08:54:00,
2013-09-13 04:00:00,52.1,49.0,30.11,NNE,20,2.0,8.0,89,0.00,,,0.00,Wunderground v.1.15,2013-09-13 09:00:00,
2013-09-13 04:02:00,52.0,48.9,30.11,NNE,15,2.0,8.0,89,0.00,,,0.00,Wunderground v.1.15,2013-09-13 09:02:00,
2013-09-13 04:04:00,51.8,48.7,30.11,North,8,2.0,8.0,89,0.00,,,0.00,Wunderground v.1.15,2013-09-13 09:04:00,
2013-09-13 04:06:00,51.7,48.9,30.12,NNE,13,2.0,8.0,90,0.00,,,0.00,Wunderground v.1.15,2013-09-13 09:06:00,
2013-09-13 04:08:00,51.6,48.8,30.12,NNE,13,2.0,8.0,90,0.00,,,0.00,Wunderground v.1.15,2013-09-13 09:08:00,
2013-09-13 04:12:00,51.5,48.7,30.12,NNE,20,3.0,8.0,90,0.00,,,0.00,Wunderground v.1.15,2013-09-13 09:12:00,
2013-09-13 04:14:00,51.4,48.6,30.12,NNE,18,3.0,8.0,90,0.00,,,0.00,Wunderground v.1.15,2013-09-13 09:14:00,
2013-09-13 04:16:00,51.3,48.5,30.12,NNE,16,3.0,8.0,90,0.00,,,0.00,Wunderground v.1.15,2013-09-13 09:16:00,
2013-09-13 04:24:00,51.3,48.8,30.12,North,6,2.0,8.0,91,0.00,,,0.00,Wunderground v.1.15,2013-09-13 09:24:00,
2013-09-13 04:26:00,51.4,48.9,30.12,North,6,2.0,8.0,91,0.00,,,0.00,Wunderground v.1.15,2013-09-13 09:26:00,
2013-09-13 04:30:00,51.5,48.7,30.12,NNW,344,2.0,8.0,90,0.00,,,0.00,Wunderground v.1.15,2013-09-13 09:30:00,
2013-09-13 04:32:00,51.5,48.7,30.12,NNW,345,2.0,8.0,90,0.00,,,0.00,Wunderground v.1.15,2013-09-13 09:32:00,
2013-09-13 04:34:00,51.5,48.7,30.13,NNW,342,2.0,8.0,90,0.00,,,0.00,Wunderground v.1.15,2013-09-13 09:34:00,
2013-09-13 04:36:00,51.5,48.7,30.13,NNW,341,2.0,8.0,90,0.00,,,0.00,Wunderground v.1.15,2013-09-13 09:36:00,
2013-09-13 04:38:00,51.5,48.7,30.13,NNW,347,1.0,8.0,90,0.00,,,0.00,Wunderground v.1.15,2013-09-13 09:38:00,
2013-09-13 04:40:00,51.4,48.3,30.13,NNW,347,1.0,8.0,89,0.00,,,0.00,Wunderground v.1.15,2013-09-13 09:40:00,
2013-09-13 04:42:00,51.4,48.3,30.13,NNW,347,1.0,8.0,89,0.00,,,0.00,Wunderground v.1.15,2013-09-13 09:42:00,
2013-09-13 04:44:00,51.4,48.3,30.13,NNW,347,1.0,8.0,89,0.00,,,0.00,Wunderground v.1.15,2013-09-13 09:44:00,
2013-09-13 04:46:00,51.4,48.3,30.13,North,355,1.0,8.0,89,0.00,,,0.00,Wunderground v.1.15,2013-09-13 09:46:00,
2013-09-13 04:48:00,51.3,48.2,30.13,North,355,1.0,8.0,89,0.00,,,0.00,Wunderground v.1.15,2013-09-13 09:48:00,
2013-09-13 04:52:00,51.4,48.3,30.13,North,355,1.0,8.0,89,0.00,,,0.00,Wunderground v.1.15,2013-09-13 09:52:00,
2013-09-13 04:54:00,51.4,48.3,30.13,North,356,1.0,8.0,89,0.00,,,0.00,Wunderground v.1.15,2013-09-13 09:54:00,
2013-09-13 05:00:00,51.2,47.8,30.13,North,4,2.0,8.0,88,0.00,,,0.00,Wunderground v.1.15,2013-09-13 10:00:00,
2013-09-13 05:04:00,50.8,47.4,30.13,North,4,2.0,8.0,88,0.00,,,0.00,Wunderground v.1.15,2013-09-13 10:04:00,
2013-09-13 05:06:00,50.6,47.5,30.13,North,6,2.0,8.0,89,0.00,,,0.00,Wunderground v.1.15,2013-09-13 10:06:00,
2013-09-13 05:08:00,50.4,47.3,30.14,NNE,27,1.0,8.0,89,0.00,,,0.00,Wunderground v.1.15,2013-09-13 10:08:00,
2013-09-13 05:10:00,50.2,47.1,30.14,NNE,27,1.0,8.0,89,0.00,,,0.00,Wunderground v.1.15,2013-09-13 10:10:00,
2013-09-13 05:14:00,50.1,47.0,30.14,NNE,25,1.0,8.0,89,0.00,,,0.00,Wunderground v.1.15,2013-09-13 10:14:00,
2013-09-13 05:16:00,50.0,46.9,30.14,NNE,25,1.0,8.0,89,0.00,,,0.00,Wunderground v.1.15,2013-09-13 10:16:00,
2013-09-13 05:18:00,49.7,46.6,30.14,NNE,23,1.0,8.0,89,0.00,,,0.00,Wunderground v.1.15,2013-09-13 10:18:00,
2013-09-13 05:22:00,49.6,46.8,30.14,NNE,17,2.0,8.0,90,0.00,,,0.00,Wunderground v.1.15,2013-09-13 10:22:00,
2013-09-13 05:24:00,49.4,46.3,30.14,NNE,18,2.0,8.0,89,0.00,,,0.00,Wunderground v.1.15,2013-09-13 10:24:00,
2013-09-13 05:28:00,48.9,45.8,30.14,North,11,3.0,8.0,89,0.00,,,0.00,Wunderground v.1.15,2013-09-13 10:28:00,
2013-09-13 05:30:00,48.8,46.0,30.14,North,8,3.0,3.0,90,0.00,,,0.00,Wunderground v.1.15,2013-09-13 10:30:00,
2013-09-13 05:34:00,48.7,46.2,30.14,North,6,2.0,8.0,91,0.00,,,0.00,Wunderground v.1.15,2013-09-13 10:34:00,
2013-09-13 05:36:00,48.8,46.3,30.14,NNW,347,2.0,8.0,91,0.00,,,0.00,Wunderground v.1.15,2013-09-13 10:36:00,
2013-09-13 05:38:00,48.8,46.3,30.14,North,351,2.0,8.0,91,0.00,,,0.00,Wunderground v.1.15,2013-09-13 10:38:00,
2013-09-13 05:42:00,48.8,46.3,30.15,NNW,340,1.0,8.0,91,0.00,,,0.00,Wunderground v.1.15,2013-09-13 10:42:00,
2013-09-13 05:44:00,48.8,46.0,30.15,NNW,335,1.0,8.0,90,0.00,,,0.00,Wunderground v.1.15,2013-09-13 10:44:00,
2013-09-13 05:48:00,48.9,46.1,30.15,NNW,346,1.0,8.0,90,0.00,,,0.00,Wunderground v.1.15,2013-09-13 10:48:00,
2013-09-13 05:50:00,49.0,46.2,30.15,North,8,1.0,1.0,90,0.00,,,0.00,Wunderground v.1.15,2013-09-13 10:50:00,
2013-09-13 05:52:00,49.0,46.2,30.15,North,351,1.0,8.0,90,0.00,,,0.00,Wunderground v.1.15,2013-09-13 10:52:00,
2013-09-13 05:54:00,48.9,45.8,30.15,North,352,1.0,8.0,89,0.00,,,0.00,Wunderground v.1.15,2013-09-13 10:54:00,
2013-09-13 06:00:00,49.1,46.0,30.15,North,11,2.0,8.0,89,0.00,,,0.00,Wunderground v.1.15,2013-09-13 11:00:00,
2013-09-13 06:02:00,49.2,46.1,30.15,NNE,13,2.0,8.0,89,0.00,,,0.00,Wunderground v.1.15,2013-09-13 11:02:00,
2013-09-13 06:04:00,49.2,45.8,30.15,North,9,3.0,8.0,88,0.00,,,0.00,Wunderground v.1.15,2013-09-13 11:04:00,
2013-09-13 06:06:00,49.1,45.7,30.15,NNE,12,3.0,8.0,88,0.00,,,0.00,Wunderground v.1.15,2013-09-13 11:06:00,
2013-09-13 06:08:00,49.1,45.7,30.15,NNE,12,3.0,8.0,88,0.00,,,0.00,Wunderground v.1.15,2013-09-13 11:08:00,
2013-09-13 06:10:00,49.0,45.6,30.15,NNE,13,3.0,3.0,88,0.00,,,0.00,Wunderground v.1.15,2013-09-13 11:10:00,
2013-09-13 06:14:00,48.6,45.2,30.15,NNE,12,2.0,8.0,88,0.00,,,0.00,Wunderground v.1.15,2013-09-13 11:14:00,
2013-09-13 06:16:00,48.4,45.0,30.15,NNE,12,2.0,8.0,88,0.00,,,0.00,Wunderground v.1.15,2013-09-13 11:16:00,
2013-09-13 06:18:00,48.2,44.8,30.15,NNE,15,2.0,8.0,88,0.00,,,0.00,Wunderground v.1.15,2013-09-13 11:18:00,
2013-09-13 06:22:00,48.0,44.9,30.15,NNE,27,2.0,8.0,89,0.00,,,0.00,Wunderground v.1.15,2013-09-13 11:22:00,
2013-09-13 06:24:00,47.9,44.8,30.15,NNE,27,2.0,8.0,89,0.00,,,0.00,Wunderground v.1.15,2013-09-13 11:24:00,
2013-09-13 06:26:00,47.9,44.8,30.15,NNE,23,2.0,8.0,89,0.00,,,0.00,Wunderground v.1.15,2013-09-13 11:26:00,
2013-09-13 06:30:00,47.9,44.8,30.16,NNE,20,2.0,8.0,89,0.00,,,0.00,Wunderground v.1.15,2013-09-13 11:30:00,
2013-09-13 06:32:00,47.9,45.1,30.16,NNE,23,2.0,8.0,90,0.00,,,0.00,Wunderground v.1.15,2013-09-13 11:32:00,
2013-09-13 06:34:00,48.0,45.2,30.16,North,11,3.0,8.0,90,0.00,,,0.00,Wunderground v.1.15,2013-09-13 11:34:00,
2013-09-13 06:36:00,48.0,44.9,30.16,NNE,16,3.0,8.0,89,0.00,,,0.00,Wunderground v.1.15,2013-09-13 11:36:00,
2013-09-13 06:38:00,47.9,44.8,30.16,North,9,3.0,8.0,89,0.00,,,0.00,Wunderground v.1.15,2013-09-13 11:38:00,
2013-09-13 06:40:00,47.8,44.7,30.16,North,6,3.0,8.0,89,0.00,,,0.00,Wunderground v.1.15,2013-09-13 11:40:00,
2013-09-13 06:44:00,47.6,44.5,30.16,NNE,18,3.0,8.0,89,0.00,,,0.00,Wunderground v.1.15,2013-09-13 11:44:00,
2013-09-13 06:46:00,47.6,44.8,30.16,NNE,20,3.0,8.0,90,0.00,,,0.00,Wunderground v.1.15,2013-09-13 11:46:00,
2013-09-13 06:48:00,47.7,44.9,30.16,NNE,23,2.0,8.0,90,0.00,,,0.00,Wunderground v.1.15,2013-09-13 11:48:00,
2013-09-13 06:52:00,47.9,45.1,30.16,NNE,19,2.0,8.0,90,0.00,,,0.00,Wunderground v.1.15,2013-09-13 11:52:00,
2013-09-13 06:54:00,47.9,44.8,30.16,NNE,15,2.0,8.0,89,0.00,,,0.00,Wunderground v.1.15,2013-09-13 11:54:00,
2013-09-13 06:56:00,48.0,44.9,30.16,NNE,18,3.0,8.0,89,0.00,,,0.00,Wunderground v.1.15,2013-09-13 11:56:00,
2013-09-13 06:58:00,48.0,44.9,30.17,North,8,3.0,8.0,89,0.00,,,0.00,Wunderground v.1.15,2013-09-13 11:58:00,
2013-09-13 07:02:00,48.0,44.9,30.16,NNE,13,3.0,8.0,89,0.00,,,0.00,Wunderground v.1.15,2013-09-13 12:02:00,
2013-09-13 07:04:00,48.0,44.9,30.17,NNE,18,3.0,8.0,89,0.00,,,0.00,Wunderground v.1.15,2013-09-13 12:04:00,
2013-09-13 07:06:00,48.1,45.0,30.17,NNE,13,3.0,8.0,89,0.00,,,0.00,Wunderground v.1.15,2013-09-13 12:06:00,
2013-09-13 07:10:00,48.2,45.1,30.17,North,6,3.0,8.0,89,0.00,,,0.00,Wunderground v.1.15,2013-09-13 12:10:00,
2013-09-13 07:12:00,48.3,45.2,30.17,North,11,3.0,8.0,89,0.00,,,0.00,Wunderground v.1.15,2013-09-13 12:12:00,
2013-09-13 07:14:00,48.4,45.3,30.17,North,4,3.0,8.0,89,0.00,,,0.00,Wunderground v.1.15,2013-09-13 12:14:00,
2013-09-13 07:16:00,48.6,45.5,30.17,NNE,12,3.0,8.0,89,0.00,,,0.00,Wunderground v.1.15,2013-09-13 12:16:00,
2013-09-13 07:20:00,48.9,45.5,30.17,North,11,3.0,8.0,88,0.00,,,0.00,Wunderground v.1.15,2013-09-13 12:20:00,
2013-09-13 07:22:00,49.0,45.6,30.17,NNE,20,3.0,8.0,88,0.00,,,0.00,Wunderground v.1.15,2013-09-13 12:22:00,
2013-09-13 07:24:00,49.2,45.8,30.17,NNE,15,4.0,8.0,88,0.00,,,0.00,Wunderground v.1.15,2013-09-13 12:24:00,
2013-09-13 07:26:00,49.3,45.9,30.17,North,1,4.0,8.0,88,0.00,,,0.00,Wunderground v.1.15,2013-09-13 12:26:00,
2013-09-13 07:32:00,50.0,46.6,30.17,NNE,15,4.0,8.0,88,0.00,,,0.00,Wunderground v.1.15,2013-09-13 12:32:00,
2013-09-13 07:34:00,50.2,46.5,30.17,NNE,18,4.0,8.0,87,0.00,,,0.00,Wunderground v.1.15,2013-09-13 12:34:00,
2013-09-13 07:36:00,50.4,46.7,30.17,NNW,339,3.0,8.0,87,0.00,,,0.00,Wunderground v.1.15,2013-09-13 12:36:00,
2013-09-13 07:38:00,50.6,46.9,30.17,North,360,4.0,8.0,87,0.00,,,0.00,Wunderground v.1.15,2013-09-13 12:38:00,
2013-09-13 07:40:00,50.7,47.0,30.17,NNE,19,4.0,8.0,87,0.00,,,0.00,Wunderground v.1.15,2013-09-13 12:40:00,
2013-09-13 07:44:00,51.0,47.3,30.17,North,360,4.0,8.0,87,0.00,,,0.00,Wunderground v.1.15,2013-09-13 12:44:00,
2013-09-13 07:48:00,51.2,47.2,30.17,North,355,4.0,8.0,86,0.00,,,0.00,Wunderground v.1.15,2013-09-13 12:48:00,
2013-09-13 07:50:00,51.3,47.3,30.17,North,8,5.0,8.0,86,0.00,,,0.00,Wunderground v.1.15,2013-09-13 12:50:00,
2013-09-13 07:56:00,51.8,47.1,30.17,North,4,5.0,8.0,84,0.00,,,0.00,Wunderground v.1.15,2013-09-13 12:56:00,
2013-09-13 07:58:00,52.0,47.3,30.17,NNE,15,5.0,8.0,84,0.00,,,0.00,Wunderground v.1.15,2013-09-13 12:58:00,
2013-09-13 08:02:00,52.3,47.3,30.18,North,4,5.0,8.0,83,0.00,,,0.00,Wunderground v.1.15,2013-09-13 13:02:00,
2013-09-13 08:04:00,52.4,47.1,30.18,North,360,5.0,8.0,82,0.00,,,0.00,Wunderground v.1.15,2013-09-13 13:04:00,
2013-09-13 08:10:00,52.6,46.6,30.18,NNE,12,6.0,8.0,80,0.00,,,0.00,Wunderground v.1.15,2013-09-13 13:10:00,
2013-09-13 08:12:00,52.7,46.7,30.18,NNW,338,6.0,8.0,80,0.00,,,0.00,Wunderground v.1.15,2013-09-13 13:12:00,
2013-09-13 08:16:00,53.1,46.8,30.18,NNE,20,6.0,9.0,79,0.00,,,0.00,Wunderground v.1.15,2013-09-13 13:16:00,
2013-09-13 08:18:00,53.2,46.5,30.18,North,358,6.0,9.0,78,0.00,,,0.00,Wunderground v.1.15,2013-09-13 13:18:00,
2013-09-13 08:20:00,53.4,46.7,30.18,NNW,347,7.0,7.0,78,0.00,,,0.00,Wunderground v.1.15,2013-09-13 13:20:00,
2013-09-13 08:24:00,53.5,46.1,30.18,North,4,8.0,13.0,76,0.00,,,0.00,Wunderground v.1.15,2013-09-13 13:24:00,
2013-09-13 08:26:00,53.6,45.9,30.18,North,356,8.0,13.0,75,0.00,,,0.00,Wunderground v.1.15,2013-09-13 13:26:00,
2013-09-13 08:30:00,53.7,45.2,30.18,NNE,18,10.0,14.0,73,0.00,,,0.00,Wunderground v.1.15,2013-09-13 13:30:00,
2013-09-13 08:32:00,53.9,45.4,30.18,NNE,20,10.0,14.0,73,0.00,,,0.00,Wunderground v.1.15,2013-09-13 13:32:00,
2013-09-13 08:36:00,54.2,45.4,30.18,NNE,23,10.0,14.0,72,0.00,,,0.00,Wunderground v.1.15,2013-09-13 13:36:00,
2013-09-13 08:38:00,54.3,45.1,30.18,NNE,18,10.0,14.0,71,0.00,,,0.00,Wunderground v.1.15,2013-09-13 13:38:00,
2013-09-13 08:42:00,54.6,44.6,30.18,NNE,20,10.0,16.0,69,0.00,,,0.00,Wunderground v.1.15,2013-09-13 13:42:00,
2013-09-13 08:46:00,54.7,44.3,30.18,North,1,11.0,16.0,68,0.00,,,0.00,Wunderground v.1.15,2013-09-13 13:46:00,
2013-09-13 08:49:00,54.7,44.3,30.18,NNE,22,11.0,16.0,68,0.00,,,0.00,Wunderground v.1.15,2013-09-13 13:49:00,
2013-09-13 08:50:00,54.8,44.4,30.18,NNE,30,11.0,11.0,68,0.00,,,0.00,Wunderground v.1.15,2013-09-13 13:50:00,
2013-09-13 08:52:00,54.9,44.5,30.18,NE,39,12.0,12.0,68,0.00,,,0.00,Wunderground v.1.15,2013-09-13 13:52:00,
2013-09-13 08:54:00,54.9,44.1,30.18,NNE,30,12.0,14.0,67,0.00,,,0.00,Wunderground v.1.15,2013-09-13 13:54:00,
2013-09-13 08:56:00,55.0,44.2,30.18,North,4,12.0,14.0,67,0.00,,,0.00,Wunderground v.1.15,2013-09-13 13:56:00,
2013-09-13 09:36:00,57.1,44.6,30.19,North,357,10.0,12.0,63,0.00,,,0.00,Wunderground v.1.15,2013-09-13 14:36:00,
2013-09-13 09:38:00,57.3,45.2,30.19,NW,321,9.0,14.0,64,0.00,,,0.00,Wunderground v.1.15,2013-09-13 14:38:00,
2013-09-13 09:40:00,57.3,44.4,30.19,NNE,23,9.0,14.0,62,0.00,,,0.00,Wunderground v.1.15,2013-09-13 14:40:00,
2013-09-13 09:44:00,57.4,44.9,30.19,North,6,9.0,14.0,63,0.00,,,0.00,Wunderground v.1.15,2013-09-13 14:44:00,
2013-09-13 09:46:00,57.4,45.7,30.19,NNW,334,8.0,8.0,65,0.00,,,0.00,Wunderground v.1.15,2013-09-13 14:46:00,
2013-09-13 09:50:00,57.9,45.0,30.19,NNE,15,8.0,8.0,62,0.00,,,0.00,Wunderground v.1.15,2013-09-13 14:50:00,
2013-09-13 09:54:00,58.3,45.3,30.19,NNW,344,8.0,13.0,62,0.00,,,0.00,Wunderground v.1.15,2013-09-13 14:54:00,
2013-09-13 09:58:00,57.9,45.0,30.19,NNE,15,9.0,11.0,62,0.00,,,0.00,Wunderground v.1.15,2013-09-13 14:58:00,
2013-09-13 10:02:00,58.0,45.5,30.19,North,356,9.0,9.0,63,0.00,,,0.00,Wunderground v.1.15,2013-09-13 15:02:00,
2013-09-13 10:04:00,58.1,45.1,30.19,NNW,332,9.0,12.0,62,0.00,,,0.00,Wunderground v.1.15,2013-09-13 15:04:00,
2013-09-13 10:06:00,58.2,45.2,30.19,North,1,9.0,12.0,62,0.00,,,0.00,Wunderground v.1.15,2013-09-13 15:06:00,
2013-09-13 10:10:00,58.6,45.2,30.19,NNW,340,9.0,9.0,61,0.00,,,0.00,Wunderground v.1.15,2013-09-13 15:10:00,
2013-09-13 10:12:00,58.7,45.3,30.19,NNE,13,10.0,10.0,61,0.00,,,0.00,Wunderground v.1.15,2013-09-13 15:12:00,
2013-09-13 10:16:00,58.6,45.2,30.18,NNE,23,9.0,10.0,61,0.00,,,0.00,Wunderground v.1.15,2013-09-13 15:16:00,
2013-09-13 10:18:00,58.8,45.4,30.18,NNE,19,9.0,14.0,61,0.00,,,0.00,Wunderground v.1.15,2013-09-13 15:18:00,
2013-09-13 10:22:00,58.8,45.4,30.18,North,1,9.0,12.0,61,0.00,,,0.00,Wunderground v.1.15,2013-09-13 15:22:00,
2013-09-13 10:24:00,59.0,45.1,30.18,North,11,9.0,12.0,60,0.00,,,0.00,Wunderground v.1.15,2013-09-13 15:24:00,
2013-09-13 10:29:00,59.6,44.8,30.19,NNE,33,9.0,12.0,58,0.00,,,0.00,Wunderground v.1.15,2013-09-13 15:29:00,
2013-09-13 10:30:00,59.6,44.3,30.19,NNE,33,9.0,12.0,57,0.00,,,0.00,Wunderground v.1.15,2013-09-13 15:30:00,
2013-09-13 10:32:00,59.6,43.9,30.19,NNE,22,9.0,12.0,56,0.00,,,0.00,Wunderground v.1.15,2013-09-13 15:32:00,
2013-09-13 10:36:00,59.6,43.9,30.18,North,358,8.0,12.0,56,0.00,,,0.00,Wunderground v.1.15,2013-09-13 15:36:00,
2013-09-13 10:38:00,59.6,43.4,30.19,NNE,27,9.0,12.0,55,0.00,,,0.00,Wunderground v.1.15,2013-09-13 15:38:00,
2013-09-13 10:40:00,59.6,43.9,30.19,North,5,8.0,8.0,56,0.00,,,0.00,Wunderground v.1.15,2013-09-13 15:40:00,
2013-09-13 10:42:00,59.7,43.5,30.19,North,1,8.0,9.0,55,0.00,,,0.00,Wunderground v.1.15,2013-09-13 15:42:00,
2013-09-13 10:44:00,59.7,43.5,30.19,NW,307,8.0,9.0,55,0.00,,,0.00,Wunderground v.1.15,2013-09-13 15:44:00,
2013-09-13 10:46:00,60.1,44.3,30.19,NW,315,8.0,9.0,56,0.00,,,0.00,Wunderground v.1.15,2013-09-13 15:46:00,
2013-09-13 10:50:00,60.5,42.8,30.19,North,8,8.0,8.0,52,0.00,,,0.00,Wunderground v.1.15,2013-09-13 15:50:00,
2013-09-13 10:52:00,60.2,43.0,30.19,NNE,19,7.0,8.0,53,0.00,,,0.00,Wunderground v.1.15,2013-09-13 15:52:00,
2013-09-13 10:54:00,60.3,43.1,30.19,NNW,338,7.0,9.0,53,0.00,,,0.00,Wunderground v.1.15,2013-09-13 15:54:00,
2013-09-13 10:56:00,60.5,42.8,30.19,NNE,15,8.0,9.0,52,0.00,,,0.00,Wunderground v.1.15,2013-09-13 15:56:00,
2013-09-13 10:58:00,60.5,42.8,30.19,North,6,8.0,9.0,52,0.00,,,0.00,Wunderground v.1.15,2013-09-13 15:58:00,
2013-09-13 11:02:00,61.0,44.2,30.19,NNW,343,7.0,8.0,54,0.00,,,0.00,Wunderground v.1.15,2013-09-13 16:02:00,
2013-09-13 11:04:00,61.2,44.4,30.19,NNW,335,7.0,8.0,54,0.00,,,0.00,Wunderground v.1.15,2013-09-13 16:04:00,
2013-09-13 11:08:00,60.8,44.5,30.18,North,5,7.0,8.0,55,0.00,,,0.00,Wunderground v.1.15,2013-09-13 16:08:00,
2013-09-13 11:10:00,60.8,44.5,30.18,NNW,337,6.0,8.0,55,0.00,,,0.00,Wunderground v.1.15,2013-09-13 16:10:00,
2013-09-13 11:16:00,61.0,44.2,30.18,North,354,7.0,8.0,54,0.00,,,0.00,Wunderground v.1.15,2013-09-13 16:16:00,
2013-09-13 11:18:00,61.4,44.6,30.18,NNE,30,7.0,8.0,54,0.00,,,0.00,Wunderground v.1.15,2013-09-13 16:18:00,
2013-09-13 11:22:00,61.7,43.9,30.18,NNW,347,8.0,8.0,52,0.00,,,0.00,Wunderground v.1.15,2013-09-13 16:22:00,
2013-09-13 11:24:00,61.5,43.7,30.18,NW,304,6.0,8.0,52,0.00,,,0.00,Wunderground v.1.15,2013-09-13 16:24:00,
2013-09-13 11:26:00,61.4,43.6,30.18,NNE,18,6.0,11.0,52,0.00,,,0.00,Wunderground v.1.15,2013-09-13 16:26:00,
2013-09-13 11:28:00,61.6,43.3,30.18,NNW,344,6.0,11.0,51,0.00,,,0.00,Wunderground v.1.15,2013-09-13 16:28:00,
2013-09-13 11:30:00,61.5,42.7,30.18,NW,315,6.0,8.0,50,0.00,,,0.00,Wunderground v.1.15,2013-09-13 16:30:00,
2013-09-13 11:34:00,62.0,43.1,30.18,North,8,6.0,11.0,50,0.00,,,0.00,Wunderground v.1.15,2013-09-13 16:34:00,
2013-09-13 11:36:00,62.0,43.1,30.18,NNW,344,7.0,11.0,50,0.00,,,0.00,Wunderground v.1.15,2013-09-13 16:36:00,
2013-09-13 11:40:00,62.1,43.2,30.18,West,267,7.0,7.0,50,0.00,,,0.00,Wunderground v.1.15,2013-09-13 16:40:00,
2013-09-13 11:44:00,62.3,43.4,30.18,NNW,329,7.0,10.0,50,0.00,,,0.00,Wunderground v.1.15,2013-09-13 16:44:00,
2013-09-13 11:46:00,62.5,43.1,30.18,NNE,12,7.0,10.0,49,0.00,,,0.00,Wunderground v.1.15,2013-09-13 16:46:00,
2013-09-13 11:48:00,62.8,42.8,30.18,NNW,342,8.0,10.0,48,0.00,,,0.00,Wunderground v.1.15,2013-09-13 16:48:00,
2013-09-13 11:50:00,62.8,42.3,30.17,North,358,7.0,9.0,47,0.00,,,0.00,Wunderground v.1.15,2013-09-13 16:50:00,
2013-09-13 11:56:00,62.5,43.1,30.18,NNW,340,7.0,9.0,49,0.00,,,0.00,Wunderground v.1.15,2013-09-13 16:56:00,
2013-09-13 11:58:00,62.6,43.7,30.17,NW,321,6.0,9.0,50,0.00,,,0.00,Wunderground v.1.15,2013-09-13 16:58:00,
2013-09-13 12:00:00,62.6,43.2,30.17,NNE,12,6.0,6.0,49,0.00,,,0.00,Wunderground v.1.15,2013-09-13 17:00:00,
2013-09-13 12:04:00,63.0,44.1,30.17,NW,326,6.0,9.0,50,0.00,,,0.00,Wunderground v.1.15,2013-09-13 17:04:00,
2013-09-13 12:06:00,63.3,43.3,30.17,NNW,347,6.0,9.0,48,0.00,,,0.00,Wunderground v.1.15,2013-09-13 17:06:00,
2013-09-13 12:08:00,63.5,44.0,30.17,North,358,6.0,9.0,49,0.00,,,0.00,Wunderground v.1.15,2013-09-13 17:08:00,
2013-09-13 12:10:00,63.6,43.0,30.17,NNE,22,7.0,8.0,47,0.00,,,0.00,Wunderground v.1.15,2013-09-13 17:10:00,
2013-09-13 12:12:00,63.8,43.2,30.17,NNE,23,7.0,8.0,47,0.00,,,0.00,Wunderground v.1.15,2013-09-13 17:12:00,
2013-09-13 12:14:00,64.0,42.2,30.17,NNE,20,8.0,11.0,45,0.00,,,0.00,Wunderground v.1.15,2013-09-13 17:14:00,
2013-09-13 12:16:00,63.9,42.7,30.17,NNE,16,7.0,11.0,46,0.00,,,0.00,Wunderground v.1.15,2013-09-13 17:16:00,
2013-09-13 12:18:00,63.9,41.5,30.17,NNE,18,8.0,11.0,44,0.00,,,0.00,Wunderground v.1.15,2013-09-13 17:18:00,
2013-09-13 12:20:00,64.0,41.6,30.17,NNE,18,7.0,7.0,44,0.00,,,0.00,Wunderground v.1.15,2013-09-13 17:20:00,
2013-09-13 12:24:00,64.0,42.2,30.17,North,4,7.0,13.0,45,0.00,,,0.00,Wunderground v.1.15,2013-09-13 17:24:00,
2013-09-13 12:26:00,64.1,42.3,30.17,NW,311,8.0,13.0,45,0.00,,,0.00,Wunderground v.1.15,2013-09-13 17:26:00,
2013-09-13 12:32:00,64.3,41.3,30.17,NNE,26,7.0,8.0,43,0.00,,,0.00,Wunderground v.1.15,2013-09-13 17:32:00,
2013-09-13 12:34:00,64.2,41.2,30.17,North,360,7.0,12.0,43,0.00,,,0.00,Wunderground v.1.15,2013-09-13 17:34:00,
2013-09-13 12:38:00,65.1,42.0,30.17,North,360,7.0,14.0,43,0.00,,,0.00,Wunderground v.1.15,2013-09-13 17:38:00,
2013-09-13 12:40:00,64.8,41.8,30.17,SE,133,8.0,8.0,43,0.00,,,0.00,Wunderground v.1.15,2013-09-13 17:40:00,
2013-09-13 12:42:00,64.3,41.3,30.16,ENE,66,7.0,8.0,43,0.00,,,0.00,Wunderground v.1.15,2013-09-13 17:42:00,
2013-09-13 12:44:00,64.6,42.8,30.16,NNE,29,6.0,8.0,45,0.00,,,0.00,Wunderground v.1.15,2013-09-13 17:44:00,
2013-09-13 12:48:00,65.0,40.7,30.16,NNE,20,6.0,8.0,41,0.00,,,0.00,Wunderground v.1.15,2013-09-13 17:48:00,
2013-09-13 12:52:00,65.2,40.9,30.16,NE,40,8.0,9.0,41,0.00,,,0.00,Wunderground v.1.15,2013-09-13 17:52:00,
2013-09-13 12:54:00,65.3,41.6,30.16,NNE,30,8.0,9.0,42,0.00,,,0.00,Wunderground v.1.15,2013-09-13 17:54:00,
2013-09-13 13:00:00,65.2,41.5,30.16,NNW,339,7.0,7.0,42,0.00,,,0.00,Wunderground v.1.15,2013-09-13 18:00:00,
2013-09-13 13:02:00,65.1,41.4,30.16,NNW,333,7.0,8.0,42,0.00,,,0.00,Wunderground v.1.15,2013-09-13 18:02:00,
2013-09-13 13:04:00,64.9,41.2,30.16,WNW,284,7.0,8.0,42,0.00,,,0.00,Wunderground v.1.15,2013-09-13 18:04:00,
2013-09-13 13:06:00,64.9,41.9,30.16,North,9,7.0,8.0,43,0.00,,,0.00,Wunderground v.1.15,2013-09-13 18:06:00,
2013-09-13 13:08:00,65.0,40.7,30.15,NNW,340,6.0,8.0,41,0.00,,,0.00,Wunderground v.1.15,2013-09-13 18:08:00,
2013-09-13 13:10:00,65.2,40.3,30.15,NW,316,7.0,11.0,40,0.00,,,0.00,Wunderground v.1.15,2013-09-13 18:10:00,
2013-09-13 13:12:00,65.1,40.2,30.15,NW,323,7.0,11.0,40,0.00,,,0.00,Wunderground v.1.15,2013-09-13 18:12:00,
2013-09-13 13:14:00,65.5,40.5,30.16,NNW,340,8.0,11.0,40,0.00,,,0.00,Wunderground v.1.15,2013-09-13 18:14:00,
2013-09-13 13:18:00,65.9,40.2,30.15,NW,304,8.0,11.0,39,0.00,,,0.00,Wunderground v.1.15,2013-09-13 18:18:00,
2013-09-13 13:20:00,65.8,40.8,30.15,NW,323,8.0,8.0,40,0.00,,,0.00,Wunderground v.1.15,2013-09-13 18:20:00,
2013-09-13 13:22:00,66.1,41.1,30.15,NNW,332,7.0,9.0,40,0.00,,,0.00,Wunderground v.1.15,2013-09-13 18:22:00,
2013-09-13 13:26:00,66.4,40.7,30.15,North,349,7.0,12.0,39,0.00,,,0.00,Wunderground v.1.15,2013-09-13 18:26:00,
2013-09-13 13:28:00,66.0,40.3,30.15,NW,319,8.0,12.0,39,0.00,,,0.00,Wunderground v.1.15,2013-09-13 18:28:00,
2013-09-13 13:30:00,65.9,40.9,30.15,North,352,9.0,9.0,40,0.00,,,0.00,Wunderground v.1.15,2013-09-13 18:30:00,
2013-09-13 13:32:00,66.2,40.5,30.15,North,355,9.0,9.0,39,0.00,,,0.00,Wunderground v.1.15,2013-09-13 18:32:00,
2013-09-13 13:36:00,66.2,40.5,30.15,North,6,8.0,12.0,39,0.00,,,0.00,Wunderground v.1.15,2013-09-13 18:36:00,
2013-09-13 13:38:00,66.0,39.7,30.15,NNW,345,7.0,12.0,38,0.00,,,0.00,Wunderground v.1.15,2013-09-13 18:38:00,
2013-09-13 13:42:00,66.3,39.9,30.14,NW,326,8.0,8.0,38,0.00,,,0.00,Wunderground v.1.15,2013-09-13 18:42:00,
2013-09-13 13:46:00,66.6,40.2,30.15,NNW,342,9.0,11.0,38,0.00,,,0.00,Wunderground v.1.15,2013-09-13 18:46:00,
2013-09-13 13:48:00,66.7,39.6,30.15,North,11,9.0,11.0,37,0.00,,,0.00,Wunderground v.1.15,2013-09-13 18:48:00,
2013-09-13 13:50:00,66.5,39.4,30.15,WNW,283,9.0,9.0,37,0.00,,,0.00,Wunderground v.1.15,2013-09-13 18:50:00,
2013-09-13 13:54:00,66.6,40.2,30.15,North,8,8.0,9.0,38,0.00,,,0.00,Wunderground v.1.15,2013-09-13 18:54:00,
2013-09-13 13:56:00,66.9,41.1,30.14,NNE,22,7.0,9.0,39,0.00,,,0.00,Wunderground v.1.15,2013-09-13 18:56:00,
2013-09-13 13:58:00,66.8,40.4,30.14,NNW,346,6.0,9.0,38,0.00,,,0.00,Wunderground v.1.15,2013-09-13 18:58:00,
2013-09-13 14:00:00,67.1,39.9,30.14,NW,312,6.0,10.0,37,0.00,,,0.00,Wunderground v.1.15,2013-09-13 19:00:00,
2013-09-13 14:04:00,67.2,39.3,30.14,NNE,15,7.0,12.0,36,0.00,,,0.00,Wunderground v.1.15,2013-09-13 19:04:00,
2013-09-13 14:06:00,67.2,39.3,30.14,North,1,6.0,12.0,36,0.00,,,0.00,Wunderground v.1.15,2013-09-13 19:06:00,
2013-09-13 14:10:00,67.3,39.4,30.14,NNW,337,8.0,10.0,36,0.00,,,0.00,Wunderground v.1.15,2013-09-13 19:10:00,
2013-09-13 14:12:00,67.3,39.4,30.14,NW,304,7.0,10.0,36,0.00,,,0.00,Wunderground v.1.15,2013-09-13 19:12:00,
2013-09-13 14:16:00,67.9,39.9,30.14,North,351,8.0,10.0,36,0.00,,,0.00,Wunderground v.1.15,2013-09-13 19:16:00,
2013-09-13 14:19:00,67.7,39.0,30.14,NNE,26,7.0,10.0,35,0.00,,,0.00,Wunderground v.1.15,2013-09-13 19:19:00,
2013-09-13 14:22:00,67.6,39.0,30.14,North,8,7.0,8.0,35,0.00,,,0.00,Wunderground v.1.15,2013-09-13 19:22:00,
2013-09-13 14:24:00,67.5,38.9,30.14,North,6,8.0,9.0,35,0.00,,,0.00,Wunderground v.1.15,2013-09-13 19:24:00,
2013-09-13 14:26:00,67.6,39.0,30.14,NNW,336,8.0,11.0,35,0.00,,,0.00,Wunderground v.1.15,2013-09-13 19:26:00,
2013-09-13 14:30:00,67.5,38.1,30.14,NNW,335,9.0,9.0,34,0.00,,,0.00,Wunderground v.1.15,2013-09-13 19:30:00,
2013-09-13 14:32:00,67.6,36.7,30.14,NE,37,7.0,9.0,32,0.00,,,0.00,Wunderground v.1.15,2013-09-13 19:32:00,
2013-09-13 14:34:00,67.9,38.5,30.13,West,278,6.0,9.0,34,0.00,,,0.00,Wunderground v.1.15,2013-09-13 19:34:00,
2013-09-13 14:36:00,68.4,38.9,30.13,North,351,5.0,11.0,34,0.00,,,0.00,Wunderground v.1.15,2013-09-13 19:36:00,
2013-09-13 14:38:00,68.6,39.1,30.13,NW,309,5.0,11.0,34,0.00,,,0.00,Wunderground v.1.15,2013-09-13 19:38:00,
2013-09-13 14:40:00,68.6,39.1,30.13,NW,326,6.0,8.0,34,0.00,,,0.00,Wunderground v.1.15,2013-09-13 19:40:00,
2013-09-13 14:46:00,68.4,38.9,30.13,North,11,7.0,8.0,34,0.00,,,0.00,Wunderground v.1.15,2013-09-13 19:46:00,
2013-09-13 14:52:00,69.1,38.0,30.13,North,357,6.0,10.0,32,0.00,,,0.00,Wunderground v.1.15,2013-09-13 19:52:00,
2013-09-13 14:54:00,69.1,38.0,30.13,North,354,7.0,10.0,32,0.00,,,0.00,Wunderground v.1.15,2013-09-13 19:54:00,
2013-09-13 14:56:00,69.1,38.8,30.13,NNE,18,7.0,10.0,33,0.00,,,0.00,Wunderground v.1.15,2013-09-13 19:56:00,
2013-09-13 15:00:00,69.4,38.2,30.13,NNE,20,7.0,11.0,32,0.00,,,0.00,Wunderground v.1.15,2013-09-13 20:00:00,
2013-09-13 15:02:00,69.3,37.3,30.13,NNE,12,7.0,11.0,31,0.00,,,0.00,Wunderground v.1.15,2013-09-13 20:02:00,
2013-09-13 15:04:00,69.2,37.3,30.13,NNW,332,7.0,11.0,31,0.00,,,0.00,Wunderground v.1.15,2013-09-13 20:04:00,
2013-09-13 15:06:00,69.2,37.3,30.13,North,1,8.0,11.0,31,0.00,,,0.00,Wunderground v.1.15,2013-09-13 20:06:00,
2013-09-13 15:08:00,68.8,36.9,30.13,NNE,19,9.0,11.0,31,0.00,,,0.00,Wunderground v.1.15,2013-09-13 20:08:00,
2013-09-13 15:12:00,68.9,36.2,30.13,North,5,8.0,9.0,30,0.00,,,0.00,Wunderground v.1.15,2013-09-13 20:12:00,
2013-09-13 15:14:00,68.8,36.9,30.13,WNW,293,8.0,9.0,31,0.00,,,0.00,Wunderground v.1.15,2013-09-13 20:14:00,
2013-09-13 15:16:00,68.9,35.3,30.13,North,4,8.0,13.0,29,0.00,,,0.00,Wunderground v.1.15,2013-09-13 20:16:00,
2013-09-13 15:18:00,68.8,36.1,30.13,NNE,13,8.0,13.0,30,0.00,,,0.00,Wunderground v.1.15,2013-09-13 20:18:00,
2013-09-13 15:20:00,68.7,35.1,30.13,NNE,20,8.0,8.0,29,0.00,,,0.00,Wunderground v.1.15,2013-09-13 20:20:00,
2013-09-13 15:24:00,69.0,36.3,30.13,North,4,9.0,11.0,30,0.00,,,0.00,Wunderground v.1.15,2013-09-13 20:24:00,
2013-09-13 15:26:00,69.1,37.2,30.13,NW,326,9.0,11.0,31,0.00,,,0.00,Wunderground v.1.15,2013-09-13 20:26:00,
2013-09-13 15:28:00,68.9,37.0,30.13,North,351,9.0,11.0,31,0.00,,,0.00,Wunderground v.1.15,2013-09-13 20:28:00,
2013-09-13 15:32:00,69.1,36.3,30.13,NNE,12,8.0,8.0,30,0.00,,,0.00,Wunderground v.1.15,2013-09-13 20:32:00,
2013-09-13 15:34:00,68.9,36.2,30.13,ENE,57,7.0,8.0,30,0.00,,,0.00,Wunderground v.1.15,2013-09-13 20:34:00,
2013-09-13 15:40:00,68.8,36.9,30.12,North,354,8.0,11.0,31,0.00,,,0.00,Wunderground v.1.15,2013-09-13 20:40:00,
2013-09-13 15:44:00,68.8,36.9,30.12,North,351,9.0,11.0,31,0.00,,,0.00,Wunderground v.1.15,2013-09-13 20:44:00,
2013-09-13 15:46:00,68.7,36.0,30.12,NNW,339,9.0,11.0,30,0.00,,,0.00,Wunderground v.1.15,2013-09-13 20:46:00,
2013-09-13 15:48:00,68.6,35.9,30.12,NE,40,8.0,11.0,30,0.00,,,0.00,Wunderground v.1.15,2013-09-13 20:48:00,
2013-09-13 15:50:00,68.6,36.7,30.12,North,11,7.0,7.0,31,0.00,,,0.00,Wunderground v.1.15,2013-09-13 20:50:00,
2013-09-13 15:52:00,68.6,35.9,30.12,NNW,332,6.0,8.0,30,0.00,,,0.00,Wunderground v.1.15,2013-09-13 20:52:00,
2013-09-13 15:54:00,68.5,35.8,30.12,NW,319,5.0,8.0,30,0.00,,,0.00,Wunderground v.1.15,2013-09-13 20:54:00,
2013-09-13 15:56:00,68.4,35.7,30.12,North,11,4.0,8.0,30,0.00,,,0.00,Wunderground v.1.15,2013-09-13 20:56:00,
2013-09-13 16:00:00,69.0,37.1,30.12,NNE,22,5.0,8.0,31,0.00,,,0.00,Wunderground v.1.15,2013-09-13 21:00:00,
2013-09-13 16:02:00,69.0,37.1,30.11,NE,53,6.0,8.0,31,0.00,,,0.00,Wunderground v.1.15,2013-09-13 21:02:00,
2013-09-13 16:06:00,69.2,36.4,30.12,WNW,302,6.0,11.0,30,0.00,,,0.00,Wunderground v.1.15,2013-09-13 21:06:00,
2013-09-13 16:08:00,69.1,37.2,30.11,NNW,347,7.0,11.0,31,0.00,,,0.00,Wunderground v.1.15,2013-09-13 21:08:00,
2013-09-13 16:10:00,69.2,36.4,30.12,NW,319,7.0,13.0,30,0.00,,,0.00,Wunderground v.1.15,2013-09-13 21:10:00,
2013-09-13 16:14:00,68.8,36.1,30.12,North,359,9.0,13.0,30,0.00,,,0.00,Wunderground v.1.15,2013-09-13 21:14:00,
2013-09-13 16:16:00,68.7,36.8,30.12,NNE,15,8.0,13.0,31,0.00,,,0.00,Wunderground v.1.15,2013-09-13 21:16:00,
2013-09-13 16:18:00,68.6,35.9,30.11,North,5,8.0,13.0,30,0.00,,,0.00,Wunderground v.1.15,2013-09-13 21:18:00,
2013-09-13 16:20:00,68.7,35.1,30.12,NNE,15,7.0,12.0,29,0.00,,,0.00,Wunderground v.1.15,2013-09-13 21:20:00,
2013-09-13 16:24:00,68.7,35.1,30.12,North,354,8.0,12.0,29,0.00,,,0.00,Wunderground v.1.15,2013-09-13 21:24:00,
2013-09-13 16:26:00,68.7,35.1,30.12,North,5,8.0,12.0,29,0.00,,,0.00,Wunderground v.1.15,2013-09-13 21:26:00,
2013-09-13 16:28:00,68.7,36.0,30.12,North,1,9.0,12.0,30,0.00,,,0.00,Wunderground v.1.15,2013-09-13 21:28:00,
2013-09-13 16:30:00,68.7,35.1,30.12,NE,37,9.0,9.0,29,0.00,,,0.00,Wunderground v.1.15,2013-09-13 21:30:00,
2013-09-13 16:36:00,68.8,36.1,30.11,NW,316,7.0,9.0,30,0.00,,,0.00,Wunderground v.1.15,2013-09-13 21:36:00,
2013-09-13 16:40:00,68.8,36.1,30.11,NW,326,7.0,7.0,30,0.00,,,0.00,Wunderground v.1.15,2013-09-13 21:40:00,
2013-09-13 16:42:00,68.9,36.2,30.11,NW,325,6.0,8.0,30,0.00,,,0.00,Wunderground v.1.15,2013-09-13 21:42:00,
2013-09-13 16:46:00,69.3,36.5,30.12,North,352,7.0,11.0,30,0.00,,,0.00,Wunderground v.1.15,2013-09-13 21:46:00,
2013-09-13 16:48:00,69.1,37.2,30.12,NNE,20,7.0,11.0,31,0.00,,,0.00,Wunderground v.1.15,2013-09-13 21:48:00,
2013-09-13 16:52:00,68.8,36.1,30.11,NE,41,7.0,8.0,30,0.00,,,0.00,Wunderground v.1.15,2013-09-13 21:52:00,
2013-09-13 16:54:00,68.9,37.0,30.11,NW,322,7.0,8.0,31,0.00,,,0.00,Wunderground v.1.15,2013-09-13 21:54:00,
2013-09-13 16:58:00,68.9,37.0,30.11,NE,37,6.0,8.0,31,0.00,,,0.00,Wunderground v.1.15,2013-09-13 21:58:00,
2013-09-13 17:00:00,68.8,36.9,30.11,NW,319,5.0,8.0,31,0.00,,,0.00,Wunderground v.1.15,2013-09-13 22:00:00,
2013-09-13 17:02:00,68.9,37.0,30.11,NNE,13,6.0,8.0,31,0.00,,,0.00,Wunderground v.1.15,2013-09-13 22:02:00,
2013-09-13 17:04:00,69.0,37.1,30.11,North,351,6.0,8.0,31,0.00,,,0.00,Wunderground v.1.15,2013-09-13 22:04:00,
2013-09-13 17:06:00,69.0,37.1,30.11,NNE,15,6.0,9.0,31,0.00,,,0.00,Wunderground v.1.15,2013-09-13 22:06:00,
2013-09-13 17:08:00,68.8,36.9,30.11,NNW,343,7.0,9.0,31,0.00,,,0.00,Wunderground v.1.15,2013-09-13 22:08:00,
2013-09-13 17:10:00,68.6,36.7,30.11,North,8,7.0,7.0,31,0.00,,,0.00,Wunderground v.1.15,2013-09-13 22:10:00,
2013-09-13 17:12:00,68.5,36.7,30.11,NW,322,7.0,8.0,31,0.00,,,0.00,Wunderground v.1.15,2013-09-13 22:12:00,
2013-09-13 17:16:00,68.4,36.6,30.11,NNW,342,7.0,8.0,31,0.00,,,0.00,Wunderground v.1.15,2013-09-13 22:16:00,
2013-09-13 17:18:00,68.5,36.7,30.11,NNW,338,6.0,8.0,31,0.00,,,0.00,Wunderground v.1.15,2013-09-13 22:18:00,
2013-09-13 17:20:00,68.5,36.7,30.11,NNW,348,6.0,6.0,31,0.00,,,0.00,Wunderground v.1.15,2013-09-13 22:20:00,
2013-09-13 17:24:00,68.5,37.5,30.11,NNE,20,5.0,8.0,32,0.00,,,0.00,Wunderground v.1.15,2013-09-13 22:24:00,
2013-09-13 17:26:00,68.6,36.7,30.11,NNW,335,5.0,8.0,31,0.00,,,0.00,Wunderground v.1.15,2013-09-13 22:26:00,
2013-09-13 17:30:00,68.8,36.9,30.11,North,4,5.0,9.0,31,0.00,,,0.00,Wunderground v.1.15,2013-09-13 22:30:00,
2013-09-13 17:32:00,68.6,36.7,30.11,NNE,12,6.0,9.0,31,0.00,,,0.00,Wunderground v.1.15,2013-09-13 22:32:00,
2013-09-13 17:38:00,68.3,36.5,30.11,NNE,22,7.0,9.0,31,0.00,,,0.00,Wunderground v.1.15,2013-09-13 22:38:00,
2013-09-13 17:40:00,68.2,36.4,30.11,NNE,18,6.0,6.0,31,0.00,,,0.00,Wunderground v.1.15,2013-09-13 22:40:00,
2013-09-13 17:42:00,68.2,36.4,30.11,North,4,6.0,9.0,31,0.00,,,0.00,Wunderground v.1.15,2013-09-13 22:42:00,
2013-09-13 17:46:00,68.2,36.4,30.11,NNE,13,6.0,9.0,31,0.00,,,0.00,Wunderground v.1.15,2013-09-13 22:46:00,
2013-09-13 17:48:00,68.1,36.3,30.11,North,11,7.0,9.0,31,0.00,,,0.00,Wunderground v.1.15,2013-09-13 22:48:00,
2013-09-13 17:54:00,67.9,36.1,30.11,NNE,26,6.0,8.0,31,0.00,,,0.00,Wunderground v.1.15,2013-09-13 22:54:00,
2013-09-13 17:56:00,67.9,36.9,30.11,NE,44,6.0,8.0,32,0.00,,,0.00,Wunderground v.1.15,2013-09-13 22:56:00,
2013-09-13 17:58:00,67.9,36.1,30.11,ENE,57,6.0,8.0,31,0.00,,,0.00,Wunderground v.1.15,2013-09-13 22:58:00,
2013-09-13 18:00:00,67.9,35.3,30.11,ENE,64,5.0,5.0,30,0.00,,,0.00,Wunderground v.1.15,2013-09-13 23:00:00,
2013-09-13 18:06:00,67.8,36.0,30.11,North,1,6.0,8.0,31,0.00,,,0.00,Wunderground v.1.15,2013-09-13 23:06:00,
2013-09-13 18:08:00,67.7,36.8,30.11,NNE,23,6.0,8.0,32,0.00,,,0.00,Wunderground v.1.15,2013-09-13 23:08:00,
2013-09-13 18:12:00,67.7,36.8,30.12,NNE,12,5.0,8.0,32,0.00,,,0.00,Wunderground v.1.15,2013-09-13 23:12:00,
2013-09-13 18:14:00,67.6,35.9,30.11,NNE,12,5.0,8.0,31,0.00,,,0.00,Wunderground v.1.15,2013-09-13 23:14:00,
2013-09-13 18:18:00,67.3,35.6,30.11,NNE,19,5.0,8.0,31,0.00,,,0.00,Wunderground v.1.15,2013-09-13 23:18:00,
2013-09-13 18:20:00,67.3,35.6,30.11,NNE,20,6.0,6.0,31,0.00,,,0.00,Wunderground v.1.15,2013-09-13 23:20:00,
2013-09-13 18:24:00,67.1,36.2,30.11,NNE,26,5.0,8.0,32,0.00,,,0.00,Wunderground v.1.15,2013-09-13 23:24:00,
2013-09-13 18:26:00,67.0,35.3,30.11,NNE,22,5.0,8.0,31,0.00,,,0.00,Wunderground v.1.15,2013-09-13 23:26:00,
2013-09-13 18:28:00,66.9,36.1,30.11,NE,34,5.0,8.0,32,0.00,,,0.00,Wunderground v.1.15,2013-09-13 23:28:00,
2013-09-13 18:30:00,66.8,36.0,30.11,NNE,25,5.0,5.0,32,0.00,,,0.00,Wunderground v.1.15,2013-09-13 23:30:00,
2013-09-13 18:32:00,66.7,35.9,30.11,NNE,33,5.0,6.0,32,0.00,,,0.00,Wunderground v.1.15,2013-09-13 23:32:00,
2013-09-13 18:34:00,66.6,36.6,30.11,NNE,19,5.0,8.0,33,0.00,,,0.00,Wunderground v.1.15,2013-09-13 23:34:00,
2013-09-13 18:40:00,66.2,37.0,30.11,NNE,19,4.0,4.0,34,0.00,,,0.00,Wunderground v.1.15,2013-09-13 23:40:00,
2013-09-13 18:42:00,66.1,37.6,30.11,NNE,20,3.0,8.0,35,0.00,,,0.00,Wunderground v.1.15,2013-09-13 23:42:00,
2013-09-13 18:44:00,65.9,37.5,30.11,NNE,13,3.0,8.0,35,0.00,,,0.00,Wunderground v.1.15,2013-09-13 23:44:00,
2013-09-13 18:48:00,65.5,37.1,30.11,NNE,13,3.0,8.0,35,0.00,,,0.00,Wunderground v.1.15,2013-09-13 23:48:00,
2013-09-13 18:54:00,64.7,37.8,30.11,NNE,18,3.0,8.0,37,0.00,,,0.00,Wunderground v.1.15,2013-09-13 23:54:00,
2013-09-13 18:56:00,64.3,37.5,30.11,NNE,18,3.0,8.0,37,0.00,,,0.00,Wunderground v.1.15,2013-09-13 23:56:00,
2013-09-13 19:00:00,63.7,37.6,30.11,NNE,15,3.0,8.0,38,0.00,,,0.00,Wunderground v.1.15,2013-09-14 00:00:00,
2013-09-13 19:02:00,63.3,37.9,30.11,NNE,12,3.0,8.0,39,0.00,,,0.00,Wunderground v.1.15,2013-09-14 00:02:00,
2013-09-13 19:06:00,62.9,37.5,30.11,North,1,3.0,8.0,39,0.00,,,0.00,Wunderground v.1.15,2013-09-14 00:06:00,
2013-09-13 19:08:00,62.8,37.5,30.11,North,4,3.0,8.0,39,0.00,,,0.00,Wunderground v.1.15,2013-09-14 00:08:00,
2013-09-13 19:10:00,62.7,38.0,30.11,North,5,3.0,8.0,40,0.00,,,0.00,Wunderground v.1.15,2013-09-14 00:10:00,
2013-09-13 19:14:00,62.2,38.2,30.11,North,8,3.0,8.0,41,0.00,,,0.00,Wunderground v.1.15,2013-09-14 00:14:00,
2013-09-13 19:16:00,62.0,38.0,30.11,North,8,3.0,8.0,41,0.00,,,0.00,Wunderground v.1.15,2013-09-14 00:16:00,
2013-09-13 19:18:00,61.7,38.4,30.11,North,8,3.0,8.0,42,0.00,,,0.00,Wunderground v.1.15,2013-09-14 00:18:00,
2013-09-13 19:20:00,61.4,38.1,30.11,North,8,3.0,8.0,42,0.00,,,0.00,Wunderground v.1.15,2013-09-14 00:20:00,
2013-09-13 19:22:00,61.1,38.4,30.11,North,8,3.0,8.0,43,0.00,,,0.00,Wunderground v.1.15,2013-09-14 00:22:00,
2013-09-13 19:28:00,60.6,38.6,30.11,North,8,2.0,8.0,44,0.00,,,0.00,Wunderground v.1.15,2013-09-14 00:28:00,
2013-09-13 19:30:00,60.5,39.0,30.11,North,8,2.0,8.0,45,0.00,,,0.00,Wunderground v.1.15,2013-09-14 00:30:00,
2013-09-13 19:34:00,60.1,39.2,30.11,North,8,3.0,8.0,46,0.00,,,0.00,Wunderground v.1.15,2013-09-14 00:34:00,
2013-09-13 19:36:00,60.0,39.1,30.11,North,8,3.0,8.0,46,0.00,,,0.00,Wunderground v.1.15,2013-09-14 00:36:00,
2013-09-13 19:40:00,59.6,39.9,30.11,North,11,3.0,8.0,48,0.00,,,0.00,Wunderground v.1.15,2013-09-14 00:40:00,
2013-09-13 19:42:00,59.4,39.7,30.11,NNE,12,3.0,8.0,48,0.00,,,0.00,Wunderground v.1.15,2013-09-14 00:42:00,
2013-09-13 19:44:00,59.4,39.7,30.11,NNE,20,3.0,8.0,48,0.00,,,0.00,Wunderground v.1.15,2013-09-14 00:44:00,
2013-09-13 19:46:00,59.2,39.5,30.11,NNE,20,3.0,8.0,48,0.00,,,0.00,Wunderground v.1.15,2013-09-14 00:46:00,
2013-09-13 19:50:00,58.6,39.5,30.12,NNE,13,3.0,8.0,49,0.00,,,0.00,Wunderground v.1.15,2013-09-14 00:50:00,
2013-09-13 19:56:00,57.5,39.5,30.12,North,11,3.0,8.0,51,0.00,,,0.00,Wunderground v.1.15,2013-09-14 00:56:00,
2013-09-13 20:00:00,57.0,39.0,30.12,North,6,3.0,8.0,51,0.00,,,0.00,Wunderground v.1.15,2013-09-14 01:00:00,
2013-09-13 20:02:00,56.8,39.4,30.12,North,6,3.0,8.0,52,0.00,,,0.00,Wunderground v.1.15,2013-09-14 01:02:00,
2013-09-13 20:04:00,56.7,39.3,30.12,North,6,3.0,8.0,52,0.00,,,0.00,Wunderground v.1.15,2013-09-14 01:04:00,
2013-09-13 20:06:00,56.7,39.7,30.12,North,6,3.0,8.0,53,0.00,,,0.00,Wunderground v.1.15,2013-09-14 01:06:00,
2013-09-13 20:08:00,56.7,39.3,30.12,North,6,3.0,8.0,52,0.00,,,0.00,Wunderground v.1.15,2013-09-14 01:08:00,
2013-09-13 20:10:00,56.8,39.4,30.12,North,6,3.0,8.0,52,0.00,,,0.00,Wunderground v.1.15,2013-09-14 01:10:00,
2013-09-13 20:14:00,57.0,39.5,30.12,North,11,3.0,8.0,52,0.00,,,0.00,Wunderground v.1.15,2013-09-14 01:14:00,
2013-09-13 20:18:00,56.3,39.4,30.13,North,6,3.0,8.0,53,0.00,,,0.00,Wunderground v.1.15,2013-09-14 01:18:00,
2013-09-13 20:20:00,56.1,39.7,30.13,North,6,3.0,3.0,54,0.00,,,0.00,Wunderground v.1.15,2013-09-14 01:20:00,
2013-09-13 20:22:00,55.8,39.9,30.13,NNE,18,3.0,8.0,55,0.00,,,0.00,Wunderground v.1.15,2013-09-14 01:22:00,
2013-09-13 20:24:00,55.9,39.5,30.13,NNE,29,3.0,8.0,54,0.00,,,0.00,Wunderground v.1.15,2013-09-14 01:24:00,
2013-09-13 20:26:00,55.8,39.4,30.13,NNE,26,3.0,8.0,54,0.00,,,0.00,Wunderground v.1.15,2013-09-14 01:26:00,
2013-09-13 20:32:00,55.0,39.6,30.13,NNE,25,3.0,8.0,56,0.00,,,0.00,Wunderground v.1.15,2013-09-14 01:32:00,
2013-09-13 20:34:00,55.0,39.6,30.13,NNE,24,3.0,8.0,56,0.00,,,0.00,Wunderground v.1.15,2013-09-14 01:34:00,
2013-09-13 20:36:00,54.9,39.5,30.13,NNE,23,3.0,8.0,56,0.00,,,0.00,Wunderground v.1.15,2013-09-14 01:36:00,
2013-09-13 20:40:00,55.1,39.2,30.13,NNE,29,3.0,8.0,55,0.00,,,0.00,Wunderground v.1.15,2013-09-14 01:40:00,
2013-09-13 20:42:00,55.1,39.2,30.13,NNE,33,3.0,8.0,55,0.00,,,0.00,Wunderground v.1.15,2013-09-14 01:42:00,
2013-09-13 20:44:00,55.3,39.4,30.13,NNE,26,3.0,8.0,55,0.00,,,0.00,Wunderground v.1.15,2013-09-14 01:44:00,
2013-09-13 20:46:00,55.2,39.3,30.13,NNE,13,3.0,8.0,55,0.00,,,0.00,Wunderground v.1.15,2013-09-14 01:46:00,
2013-09-13 20:48:00,55.3,39.4,30.13,North,5,3.0,8.0,55,0.00,,,0.00,Wunderground v.1.15,2013-09-14 01:48:00,
2013-09-13 20:50:00,55.4,39.0,30.13,North,4,3.0,8.0,54,0.00,,,0.00,Wunderground v.1.15,2013-09-14 01:50:00,
2013-09-13 20:54:00,55.7,38.8,30.13,North,8,3.0,8.0,53,0.00,,,0.00,Wunderground v.1.15,2013-09-14 01:54:00,
2013-09-13 20:56:00,55.7,38.8,30.13,NNE,15,4.0,8.0,53,0.00,,,0.00,Wunderground v.1.15,2013-09-14 01:56:00,
2013-09-13 20:58:00,55.5,38.6,30.14,NNE,18,4.0,8.0,53,0.00,,,0.00,Wunderground v.1.15,2013-09-14 01:58:00,
2013-09-13 21:00:00,55.3,38.9,30.14,NNE,18,4.0,8.0,54,0.00,,,0.00,Wunderground v.1.15,2013-09-14 02:00:00,
2013-09-13 21:02:00,54.9,39.0,30.14,NNE,20,4.0,8.0,55,0.00,,,0.00,Wunderground v.1.15,2013-09-14 02:02:00,
2013-09-13 21:04:00,54.8,38.9,30.14,NNE,15,4.0,8.0,55,0.00,,,0.00,Wunderground v.1.15,2013-09-14 02:04:00,
2013-09-13 21:10:00,54.3,38.9,30.14,North,11,3.0,8.0,56,0.00,,,0.00,Wunderground v.1.15,2013-09-14 02:10:00,
2013-09-13 21:12:00,54.2,39.3,30.14,North,9,3.0,8.0,57,0.00,,,0.00,Wunderground v.1.15,2013-09-14 02:12:00,
2013-09-13 21:14:00,54.0,39.1,30.14,North,11,3.0,8.0,57,0.00,,,0.00,Wunderground v.1.15,2013-09-14 02:14:00,
2013-09-13 21:18:00,53.8,39.4,30.14,North,10,4.0,8.0,58,0.00,,,0.00,Wunderground v.1.15,2013-09-14 02:18:00,
2013-09-13 21:22:00,53.6,39.2,30.14,NNE,16,4.0,8.0,58,0.00,,,0.00,Wunderground v.1.15,2013-09-14 02:22:00,
2013-09-13 21:24:00,53.6,39.6,30.14,NNE,18,4.0,8.0,59,0.00,,,0.00,Wunderground v.1.15,2013-09-14 02:24:00,
2013-09-13 21:26:00,53.6,39.6,30.14,NNE,15,5.0,8.0,59,0.00,,,0.00,Wunderground v.1.15,2013-09-14 02:26:00,
2013-09-13 21:28:00,53.5,39.5,30.14,NNE,13,5.0,8.0,59,0.00,,,0.00,Wunderground v.1.15,2013-09-14 02:28:00,
2013-09-13 21:30:00,53.3,39.8,30.14,NNE,16,5.0,8.0,60,0.00,,,0.00,Wunderground v.1.15,2013-09-14 02:30:00,
2013-09-13 21:32:00,53.2,39.7,30.14,NNE,18,5.0,8.0,60,0.00,,,0.00,Wunderground v.1.15,2013-09-14 02:32:00,
2013-09-13 21:34:00,53.0,39.5,30.13,NNE,20,5.0,8.0,60,0.00,,,0.00,Wunderground v.1.15,2013-09-14 02:34:00,
2013-09-13 21:36:00,53.0,39.5,30.13,NNE,12,5.0,8.0,60,0.00,,,0.00,Wunderground v.1.15,2013-09-14 02:36:00,
2013-09-13 21:38:00,53.1,39.6,30.13,NNE,18,5.0,8.0,60,0.00,,,0.00,Wunderground v.1.15,2013-09-14 02:38:00,
2013-09-13 21:42:00,52.9,39.8,30.13,NNE,23,5.0,8.0,61,0.00,,,0.00,Wunderground v.1.15,2013-09-14 02:42:00,
2013-09-13 21:44:00,52.9,39.8,30.13,NNE,25,4.0,8.0,61,0.00,,,0.00,Wunderground v.1.15,2013-09-14 02:44:00,
2013-09-13 21:48:00,52.8,39.7,30.13,NNE,16,4.0,8.0,61,0.00,,,0.00,Wunderground v.1.15,2013-09-14 02:48:00,
2013-09-13 21:50:00,52.8,39.7,30.13,NNE,19,4.0,8.0,61,0.00,,,0.00,Wunderground v.1.15,2013-09-14 02:50:00,
2013-09-13 21:52:00,52.6,39.5,30.13,NNE,19,4.0,8.0,61,0.00,,,0.00,Wunderground v.1.15,2013-09-14 02:52:00,
2013-09-13 21:56:00,52.4,39.8,30.14,NNE,20,4.0,8.0,62,0.00,,,0.00,Wunderground v.1.15,2013-09-14 02:56:00,
2013-09-13 21:58:00,52.4,40.2,30.13,NNE,25,4.0,8.0,63,0.00,,,0.00,Wunderground v.1.15,2013-09-14 02:58:00,
2013-09-13 22:00:00,52.5,40.3,30.13,NNE,26,4.0,8.0,63,0.00,,,0.00,Wunderground v.1.15,2013-09-14 03:00:00,
2013-09-13 22:02:00,52.6,40.4,30.13,NNE,26,4.0,8.0,63,0.00,,,0.00,Wunderground v.1.15,2013-09-14 03:02:00,
2013-09-13 22:08:00,53.1,40.8,30.13,NE,34,5.0,8.0,63,0.00,,,0.00,Wunderground v.1.15,2013-09-14 03:08:00,
2013-09-13 22:10:00,53.2,40.9,30.13,NNE,30,5.0,5.0,63,0.00,,,0.00,Wunderground v.1.15,2013-09-14 03:10:00,
2013-09-13 22:12:00,53.3,41.0,30.13,NE,37,5.0,8.0,63,0.00,,,0.00,Wunderground v.1.15,2013-09-14 03:12:00,
2013-09-13 22:16:00,53.5,40.8,30.13,NNE,30,5.0,8.0,62,0.00,,,0.00,Wunderground v.1.15,2013-09-14 03:16:00,
2013-09-13 22:18:00,53.6,40.9,30.13,NNE,30,5.0,8.0,62,0.00,,,0.00,Wunderground v.1.15,2013-09-14 03:18:00,
2013-09-13 22:20:00,53.5,40.8,30.13,NNE,32,4.0,8.0,62,0.00,,,0.00,Wunderground v.1.15,2013-09-14 03:20:00,
2013-09-13 22:22:00,53.5,41.2,30.13,NE,34,4.0,8.0,63,0.00,,,0.00,Wunderground v.1.15,2013-09-14 03:22:00,
2013-09-13 22:24:00,53.4,41.1,30.13,NNE,30,4.0,8.0,63,0.00,,,0.00,Wunderground v.1.15,2013-09-14 03:24:00,
2013-09-13 22:28:00,53.2,41.3,30.13,NE,40,4.0,8.0,64,0.00,,,0.00,Wunderground v.1.15,2013-09-14 03:28:00,
2013-09-13 22:30:00,53.1,41.2,30.14,NE,41,4.0,4.0,64,0.00,,,0.00,Wunderground v.1.15,2013-09-14 03:30:00,
2013-09-13 22:32:00,53.0,41.1,30.14,NE,37,3.0,8.0,64,0.00,,,0.00,Wunderground v.1.15,2013-09-14 03:32:00,
2013-09-13 22:36:00,52.6,41.2,30.14,NE,46,3.0,8.0,65,0.00,,,0.00,Wunderground v.1.15,2013-09-14 03:36:00,
2013-09-13 22:38:00,52.4,41.4,30.14,ENE,57,3.0,8.0,66,0.00,,,0.00,Wunderground v.1.15,2013-09-14 03:38:00,
2013-09-13 22:44:00,51.9,41.3,30.14,ENE,57,4.0,8.0,67,0.00,,,0.00,Wunderground v.1.15,2013-09-14 03:44:00,
2013-09-13 22:48:00,51.6,41.4,30.14,ENE,59,4.0,8.0,68,0.00,,,0.00,Wunderground v.1.15,2013-09-14 03:48:00,
2013-09-13 22:50:00,51.5,41.3,30.14,ENE,61,4.0,4.0,68,0.00,,,0.00,Wunderground v.1.15,2013-09-14 03:50:00,
2013-09-13 22:52:00,51.4,41.6,30.14,ENE,58,4.0,8.0,69,0.00,,,0.00,Wunderground v.1.15,2013-09-14 03:52:00,
2013-09-13 22:56:00,51.4,41.9,30.14,NE,49,4.0,8.0,70,0.00,,,0.00,Wunderground v.1.15,2013-09-14 03:56:00,
2013-09-13 22:58:00,51.4,41.9,30.14,NE,54,4.0,8.0,70,0.00,,,0.00,Wunderground v.1.15,2013-09-14 03:58:00,
2013-09-13 23:00:00,51.4,41.9,30.14,ENE,70,4.0,8.0,70,0.00,,,0.00,Wunderground v.1.15,2013-09-14 04:00:00,
2013-09-13 23:02:00,51.4,42.3,30.14,NE,43,4.0,8.0,71,0.00,,,0.00,Wunderground v.1.15,2013-09-14 04:02:00,
2013-09-13 23:04:00,51.3,42.2,30.14,NE,54,4.0,8.0,71,0.00,,,0.00,Wunderground v.1.15,2013-09-14 04:04:00,
2013-09-13 23:10:00,51.1,42.4,30.14,ENE,61,4.0,8.0,72,0.00,,,0.00,Wunderground v.1.15,2013-09-14 04:10:00,
2013-09-13 23:12:00,51.1,42.4,30.14,ENE,60,4.0,8.0,72,0.00,,,0.00,Wunderground v.1.15,2013-09-14 04:12:00,
2013-09-13 23:16:00,50.9,42.6,30.14,NE,51,4.0,8.0,73,0.00,,,0.00,Wunderground v.1.15,2013-09-14 04:16:00,
2013-09-13 23:20:00,50.6,42.6,30.14,NE,54,4.0,8.0,74,0.00,,,0.00,Wunderground v.1.15,2013-09-14 04:20:00,
2013-09-13 23:22:00,50.5,42.9,30.14,East,91,4.0,8.0,75,0.00,,,0.00,Wunderground v.1.15,2013-09-14 04:22:00,
2013-09-13 23:28:00,50.1,42.8,30.14,East,79,4.0,8.0,76,0.00,,,0.00,Wunderground v.1.15,2013-09-14 04:28:00,
2013-09-13 23:32:00,49.9,43.0,30.14,ENE,72,4.0,8.0,77,0.00,,,0.00,Wunderground v.1.15,2013-09-14 04:32:00,
2013-09-13 23:34:00,49.8,42.9,30.14,ENE,75,4.0,8.0,77,0.00,,,0.00,Wunderground v.1.15,2013-09-14 04:34:00,
2013-09-13 23:38:00,49.7,43.1,30.14,East,91,4.0,8.0,78,0.00,,,0.00,Wunderground v.1.15,2013-09-14 04:38:00,
2013-09-13 23:40:00,49.7,43.1,30.14,East,101,4.0,8.0,78,0.00,,,0.00,Wunderground v.1.15,2013-09-14 04:40:00,
2013-09-13 23:42:00,49.6,43.4,30.14,East,86,4.0,8.0,79,0.00,,,0.00,Wunderground v.1.15,2013-09-14 04:42:00,
2013-09-13 23:46:00,49.4,43.2,30.14,East,96,3.0,8.0,79,0.00,,,0.00,Wunderground v.1.15,2013-09-14 04:46:00,
2013-09-13 23:48:00,49.3,43.1,30.14,ENE,63,3.0,8.0,79,0.00,,,0.00,Wunderground v.1.15,2013-09-14 04:48:00,
2013-09-13 23:52:00,49.1,43.2,30.13,ENE,63,4.0,8.0,80,0.00,,,0.00,Wunderground v.1.15,2013-09-14 04:52:00,
2013-09-13 23:54:00,49.1,43.2,30.13,ENE,72,4.0,8.0,80,0.00,,,0.00,Wunderground v.1.15,2013-09-14 04:54:00,
2013-09-13 23:56:00,49.1,43.5,30.13,ENE,77,4.0,8.0,81,0.00,,,0.00,Wunderground v.1.15,2013-09-14 04:56:00,